<?xml version="1.0" encoding="UTF-8" standalone="no" ?>
<gpx xmlns="http://www.topografix.com/GPX/1/1" xmlns:xsi="http://www.w3.org/2001/XMLSchema-instance" xsi:schemaLocation="http://www.topografix.com/GPX/1/1 http://www.topografix.com/GPX/1/1/gpx.xsd" version="1.1" creator="VisuGPX - https://www.visugpx.com">
  <metadata>
    <name>second entraînement</name>
    <desc><![CDATA[Ballade entre midi et deux pour préparer le Oxfam trailwalker !]]></desc>
  </metadata>
  <wpt lat="47.54094" lon="7.17103">
    <ele>381.79</ele>
    <name><![CDATA[0000003]]></name>
    <type><![CDATA[Point de départ]]></type>
  </wpt>
  <wpt lat="47.54201" lon="7.17163">
    <ele>307.64</ele>
    <name><![CDATA[0000004]]></name>
    <desc><![CDATA[<p><br /><h3>Nom: Segment: 1</h3><br />Heure de départ: 01/17/2018 12:30<br/>Heure d'arrivée: 01/17/2018 13:16<br/>Distance: 4,8km (00:46)<br/>Temps déplacement: 00:44<br/>Vitesse moyenne: 6,31 km/h<br/>Vitesse moyenne mouv.: 6,49 km/h<br/>Vitesse Max.: 20,53 km/h<br/>Altitude minimale: 307 m<br/>Altitude maximale: 449 m<br/>Vitesse de montée: 278 m/h<br/>Vitesse de descente: -549,5 m/h<br/>Gain d'altitude: 114 m<br/>Perte d'altitude: -189 m<br/>Temps de montée: 00:24<br/>Temps de descente: 00:20<br/></p>]]></desc>
    <type><![CDATA[Point d'arrivée]]></type>
  </wpt>
  <trk>
    <name><![CDATA[2018-01-17 12:30]]></name>
    <desc><![CDATA[<p>Heure de départ: 01/17/2018 12:30<br/>Heure d'arrivée: 01/17/2018 13:16<br/>Distance: 4,8 km (00:46)<br/>Temps déplacement: 00:44<br/>Vitesse moyenne: 6,31 km/h<br/>Vitesse moyenne mouv.: 6,49 km/h<br/>Vitesse Max.: 20,53 km/h<br/>Altitude minimale: 307 m<br/>Altitude maximale: 449 m<br/>Vitesse de montée: 271,8 m/h<br/>Vitesse de descente: -339,2 m/h<br/>Gain d'altitude: 100 m<br/>Perte d'altitude: -130 m<br/>Temps de montée: 00:22<br/>Temps de descente: 00:23<br/></p><hr align="center" width="480" style="height: 2px; width: 517px"/>]]></desc>
    <trkseg>
      <trkpt lat="47.54094" lon="7.17103">
        <ele>381.79</ele>
        <time>2018-01-17T11:30:45Z</time>
      </trkpt>
      <trkpt lat="47.54075" lon="7.17107">
        <ele>368.3</ele>
        <time>2018-01-17T11:30:53Z</time>
      </trkpt>
      <trkpt lat="47.54066" lon="7.17131">
        <ele>364.62</ele>
        <time>2018-01-17T11:31:05Z</time>
      </trkpt>
      <trkpt lat="47.54056" lon="7.17154">
        <ele>365.09</ele>
        <time>2018-01-17T11:31:17Z</time>
      </trkpt>
      <trkpt lat="47.54045" lon="7.17178">
        <ele>366.76</ele>
        <time>2018-01-17T11:31:29Z</time>
      </trkpt>
      <trkpt lat="47.54033" lon="7.17199">
        <ele>367</ele>
        <time>2018-01-17T11:31:41Z</time>
      </trkpt>
      <trkpt lat="47.5402" lon="7.17222">
        <ele>368.69</ele>
        <time>2018-01-17T11:31:53Z</time>
      </trkpt>
      <trkpt lat="47.54005" lon="7.1724">
        <ele>368.55</ele>
        <time>2018-01-17T11:32:05Z</time>
      </trkpt>
      <trkpt lat="47.53985" lon="7.17239">
        <ele>369.55</ele>
        <time>2018-01-17T11:32:21Z</time>
      </trkpt>
      <trkpt lat="47.53966" lon="7.17229">
        <ele>368.8</ele>
        <time>2018-01-17T11:32:33Z</time>
      </trkpt>
      <trkpt lat="47.53947" lon="7.17222">
        <ele>369.79</ele>
        <time>2018-01-17T11:32:45Z</time>
      </trkpt>
      <trkpt lat="47.53932" lon="7.17238">
        <ele>370.79</ele>
        <time>2018-01-17T11:32:55Z</time>
      </trkpt>
      <trkpt lat="47.5392" lon="7.17259">
        <ele>370.79</ele>
        <time>2018-01-17T11:33:05Z</time>
      </trkpt>
      <trkpt lat="47.53908" lon="7.17282">
        <ele>370.79</ele>
        <time>2018-01-17T11:33:17Z</time>
      </trkpt>
      <trkpt lat="47.53896" lon="7.17305">
        <ele>372.49</ele>
        <time>2018-01-17T11:33:29Z</time>
      </trkpt>
      <trkpt lat="47.53884" lon="7.17328">
        <ele>371.79</ele>
        <time>2018-01-17T11:33:41Z</time>
      </trkpt>
      <trkpt lat="47.53869" lon="7.1735">
        <ele>371.79</ele>
        <time>2018-01-17T11:33:53Z</time>
      </trkpt>
      <trkpt lat="47.53857" lon="7.17373">
        <ele>371.79</ele>
        <time>2018-01-17T11:34:05Z</time>
      </trkpt>
      <trkpt lat="47.53836" lon="7.17369">
        <ele>373.76</ele>
        <time>2018-01-17T11:34:26Z</time>
      </trkpt>
      <trkpt lat="47.53817" lon="7.17358">
        <ele>374.79</ele>
        <time>2018-01-17T11:34:40Z</time>
      </trkpt>
      <trkpt lat="47.53799" lon="7.17345">
        <ele>376.44</ele>
        <time>2018-01-17T11:34:54Z</time>
      </trkpt>
      <trkpt lat="47.53782" lon="7.17333">
        <ele>378.49</ele>
        <time>2018-01-17T11:35:06Z</time>
      </trkpt>
      <trkpt lat="47.53764" lon="7.17318">
        <ele>377.67</ele>
        <time>2018-01-17T11:35:18Z</time>
      </trkpt>
      <trkpt lat="47.53745" lon="7.17305">
        <ele>379.39</ele>
        <time>2018-01-17T11:35:30Z</time>
      </trkpt>
      <trkpt lat="47.53726" lon="7.17293">
        <ele>382.69</ele>
        <time>2018-01-17T11:35:42Z</time>
      </trkpt>
      <trkpt lat="47.53713" lon="7.17272">
        <ele>386.66</ele>
        <time>2018-01-17T11:35:54Z</time>
      </trkpt>
      <trkpt lat="47.53697" lon="7.17256">
        <ele>389.46</ele>
        <time>2018-01-17T11:36:06Z</time>
      </trkpt>
      <trkpt lat="47.53678" lon="7.17249">
        <ele>390.79</ele>
        <time>2018-01-17T11:36:20Z</time>
      </trkpt>
      <trkpt lat="47.5366" lon="7.17265">
        <ele>391.46</ele>
        <time>2018-01-17T11:36:32Z</time>
      </trkpt>
      <trkpt lat="47.53645" lon="7.1728">
        <ele>393.46</ele>
        <time>2018-01-17T11:36:44Z</time>
      </trkpt>
      <trkpt lat="47.53626" lon="7.17295">
        <ele>394.49</ele>
        <time>2018-01-17T11:36:58Z</time>
      </trkpt>
      <trkpt lat="47.53607" lon="7.17301">
        <ele>394.81</ele>
        <time>2018-01-17T11:37:12Z</time>
      </trkpt>
      <trkpt lat="47.53588" lon="7.17295">
        <ele>395.78</ele>
        <time>2018-01-17T11:37:26Z</time>
      </trkpt>
      <trkpt lat="47.5357" lon="7.1729">
        <ele>395.87</ele>
        <time>2018-01-17T11:37:38Z</time>
      </trkpt>
      <trkpt lat="47.53552" lon="7.17285">
        <ele>397.48</ele>
        <time>2018-01-17T11:37:52Z</time>
      </trkpt>
      <trkpt lat="47.53548" lon="7.17258">
        <ele>400.78</ele>
        <time>2018-01-17T11:38:04Z</time>
      </trkpt>
      <trkpt lat="47.53545" lon="7.1723">
        <ele>400.79</ele>
        <time>2018-01-17T11:38:16Z</time>
      </trkpt>
      <trkpt lat="47.5354" lon="7.17203">
        <ele>402.69</ele>
        <time>2018-01-17T11:38:28Z</time>
      </trkpt>
      <trkpt lat="47.53538" lon="7.17174">
        <ele>405.48</ele>
        <time>2018-01-17T11:38:40Z</time>
      </trkpt>
      <trkpt lat="47.53533" lon="7.17143">
        <ele>407.48</ele>
        <time>2018-01-17T11:38:54Z</time>
      </trkpt>
      <trkpt lat="47.5353" lon="7.17117">
        <ele>408.78</ele>
        <time>2018-01-17T11:39:06Z</time>
      </trkpt>
      <trkpt lat="47.53526" lon="7.1709">
        <ele>409.09</ele>
        <time>2018-01-17T11:39:18Z</time>
      </trkpt>
      <trkpt lat="47.53522" lon="7.17061">
        <ele>408.41</ele>
        <time>2018-01-17T11:39:30Z</time>
      </trkpt>
      <trkpt lat="47.53518" lon="7.17032">
        <ele>411.7</ele>
        <time>2018-01-17T11:39:44Z</time>
      </trkpt>
      <trkpt lat="47.5351" lon="7.17005">
        <ele>411.79</ele>
        <time>2018-01-17T11:39:56Z</time>
      </trkpt>
      <trkpt lat="47.53503" lon="7.16979">
        <ele>413.78</ele>
        <time>2018-01-17T11:40:08Z</time>
      </trkpt>
      <trkpt lat="47.53496" lon="7.16953">
        <ele>413.81</ele>
        <time>2018-01-17T11:40:20Z</time>
      </trkpt>
      <trkpt lat="47.53492" lon="7.16926">
        <ele>415.7</ele>
        <time>2018-01-17T11:40:32Z</time>
      </trkpt>
      <trkpt lat="47.53488" lon="7.16896">
        <ele>415.79</ele>
        <time>2018-01-17T11:40:46Z</time>
      </trkpt>
      <trkpt lat="47.53479" lon="7.1687">
        <ele>415.79</ele>
        <time>2018-01-17T11:40:58Z</time>
      </trkpt>
      <trkpt lat="47.53475" lon="7.16843">
        <ele>415.79</ele>
        <time>2018-01-17T11:41:10Z</time>
      </trkpt>
      <trkpt lat="47.53467" lon="7.16815">
        <ele>416.47</ele>
        <time>2018-01-17T11:41:24Z</time>
      </trkpt>
      <trkpt lat="47.53459" lon="7.1679">
        <ele>420.45</ele>
        <time>2018-01-17T11:41:36Z</time>
      </trkpt>
      <trkpt lat="47.53444" lon="7.16767">
        <ele>419.79</ele>
        <time>2018-01-17T11:41:50Z</time>
      </trkpt>
      <trkpt lat="47.5343" lon="7.16748">
        <ele>420.7</ele>
        <time>2018-01-17T11:42:02Z</time>
      </trkpt>
      <trkpt lat="47.53416" lon="7.16729">
        <ele>421.49</ele>
        <time>2018-01-17T11:42:14Z</time>
      </trkpt>
      <trkpt lat="47.53402" lon="7.16709">
        <ele>422.69</ele>
        <time>2018-01-17T11:42:26Z</time>
      </trkpt>
      <trkpt lat="47.53386" lon="7.1669">
        <ele>423.76</ele>
        <time>2018-01-17T11:42:38Z</time>
      </trkpt>
      <trkpt lat="47.53372" lon="7.16669">
        <ele>424.79</ele>
        <time>2018-01-17T11:42:52Z</time>
      </trkpt>
      <trkpt lat="47.53355" lon="7.16651">
        <ele>426.49</ele>
        <time>2018-01-17T11:43:04Z</time>
      </trkpt>
      <trkpt lat="47.53342" lon="7.16633">
        <ele>426.79</ele>
        <time>2018-01-17T11:43:16Z</time>
      </trkpt>
      <trkpt lat="47.53326" lon="7.16615">
        <ele>428.7</ele>
        <time>2018-01-17T11:43:30Z</time>
      </trkpt>
      <trkpt lat="47.53313" lon="7.16595">
        <ele>430.69</ele>
        <time>2018-01-17T11:43:44Z</time>
      </trkpt>
      <trkpt lat="47.53299" lon="7.16577">
        <ele>432.97</ele>
        <time>2018-01-17T11:43:56Z</time>
      </trkpt>
      <trkpt lat="47.53284" lon="7.16556">
        <ele>433.79</ele>
        <time>2018-01-17T11:44:10Z</time>
      </trkpt>
      <trkpt lat="47.53272" lon="7.16535">
        <ele>433.79</ele>
        <time>2018-01-17T11:44:22Z</time>
      </trkpt>
      <trkpt lat="47.53258" lon="7.16517">
        <ele>436</ele>
        <time>2018-01-17T11:44:34Z</time>
      </trkpt>
      <trkpt lat="47.53245" lon="7.16498">
        <ele>437.7</ele>
        <time>2018-01-17T11:44:46Z</time>
      </trkpt>
      <trkpt lat="47.53229" lon="7.16482">
        <ele>437.79</ele>
        <time>2018-01-17T11:44:58Z</time>
      </trkpt>
      <trkpt lat="47.53214" lon="7.16462">
        <ele>440.46</ele>
        <time>2018-01-17T11:45:10Z</time>
      </trkpt>
      <trkpt lat="47.532" lon="7.16441">
        <ele>440.77</ele>
        <time>2018-01-17T11:45:22Z</time>
      </trkpt>
      <trkpt lat="47.53184" lon="7.16423">
        <ele>442.05</ele>
        <time>2018-01-17T11:45:34Z</time>
      </trkpt>
      <trkpt lat="47.53172" lon="7.16401">
        <ele>442.46</ele>
        <time>2018-01-17T11:45:46Z</time>
      </trkpt>
      <trkpt lat="47.53158" lon="7.16382">
        <ele>443.49</ele>
        <time>2018-01-17T11:45:58Z</time>
      </trkpt>
      <trkpt lat="47.53145" lon="7.1636">
        <ele>444.7</ele>
        <time>2018-01-17T11:46:12Z</time>
      </trkpt>
      <trkpt lat="47.53132" lon="7.16337">
        <ele>445</ele>
        <time>2018-01-17T11:46:24Z</time>
      </trkpt>
      <trkpt lat="47.53119" lon="7.16319">
        <ele>445.76</ele>
        <time>2018-01-17T11:46:36Z</time>
      </trkpt>
      <trkpt lat="47.53106" lon="7.16297">
        <ele>446.76</ele>
        <time>2018-01-17T11:46:48Z</time>
      </trkpt>
      <trkpt lat="47.53092" lon="7.1628">
        <ele>446.79</ele>
        <time>2018-01-17T11:46:58Z</time>
      </trkpt>
      <trkpt lat="47.53078" lon="7.16258">
        <ele>446.73</ele>
        <time>2018-01-17T11:47:12Z</time>
      </trkpt>
      <trkpt lat="47.53065" lon="7.16234">
        <ele>446.81</ele>
        <time>2018-01-17T11:47:24Z</time>
      </trkpt>
      <trkpt lat="47.53054" lon="7.16214">
        <ele>448.41</ele>
        <time>2018-01-17T11:47:36Z</time>
      </trkpt>
      <trkpt lat="47.5304" lon="7.16196">
        <ele>448.09</ele>
        <time>2018-01-17T11:47:48Z</time>
      </trkpt>
      <trkpt lat="47.53029" lon="7.1617">
        <ele>444.12</ele>
        <time>2018-01-17T11:48:02Z</time>
      </trkpt>
      <trkpt lat="47.53011" lon="7.16153">
        <ele>442.73</ele>
        <time>2018-01-17T11:48:14Z</time>
      </trkpt>
      <trkpt lat="47.52994" lon="7.16138">
        <ele>442.09</ele>
        <time>2018-01-17T11:48:25Z</time>
      </trkpt>
      <trkpt lat="47.52974" lon="7.16126">
        <ele>443.7</ele>
        <time>2018-01-17T11:48:36Z</time>
      </trkpt>
      <trkpt lat="47.52956" lon="7.16112">
        <ele>444.78</ele>
        <time>2018-01-17T11:48:48Z</time>
      </trkpt>
      <trkpt lat="47.52938" lon="7.1609">
        <ele>445.85</ele>
        <time>2018-01-17T11:49:02Z</time>
      </trkpt>
      <trkpt lat="47.52921" lon="7.16078">
        <ele>445.58</ele>
        <time>2018-01-17T11:49:12Z</time>
      </trkpt>
      <trkpt lat="47.52905" lon="7.16061">
        <ele>448.42</ele>
        <time>2018-01-17T11:49:24Z</time>
      </trkpt>
      <trkpt lat="47.52892" lon="7.16041">
        <ele>448.18</ele>
        <time>2018-01-17T11:49:40Z</time>
      </trkpt>
      <trkpt lat="47.52875" lon="7.16025">
        <ele>449.67</ele>
        <time>2018-01-17T11:49:52Z</time>
      </trkpt>
      <trkpt lat="47.52864" lon="7.16003">
        <ele>449.82</ele>
        <time>2018-01-17T11:50:04Z</time>
      </trkpt>
      <trkpt lat="47.52853" lon="7.15978">
        <ele>449.09</ele>
        <time>2018-01-17T11:50:16Z</time>
      </trkpt>
      <trkpt lat="47.52837" lon="7.15961">
        <ele>448.09</ele>
        <time>2018-01-17T11:50:26Z</time>
      </trkpt>
      <trkpt lat="47.52819" lon="7.15942">
        <ele>446.8</ele>
        <time>2018-01-17T11:50:36Z</time>
      </trkpt>
      <trkpt lat="47.52804" lon="7.15919">
        <ele>445.49</ele>
        <time>2018-01-17T11:50:48Z</time>
      </trkpt>
      <trkpt lat="47.52788" lon="7.15903">
        <ele>447.49</ele>
        <time>2018-01-17T11:50:58Z</time>
      </trkpt>
      <trkpt lat="47.52774" lon="7.15884">
        <ele>445.82</ele>
        <time>2018-01-17T11:51:10Z</time>
      </trkpt>
      <trkpt lat="47.52759" lon="7.15868">
        <ele>445.77</ele>
        <time>2018-01-17T11:51:20Z</time>
      </trkpt>
      <trkpt lat="47.52748" lon="7.15846">
        <ele>441.62</ele>
        <time>2018-01-17T11:51:36Z</time>
      </trkpt>
      <trkpt lat="47.52732" lon="7.1583">
        <ele>438.44</ele>
        <time>2018-01-17T11:51:44Z</time>
      </trkpt>
      <trkpt lat="47.52731" lon="7.15858">
        <ele>434.19</ele>
        <time>2018-01-17T11:52:22Z</time>
      </trkpt>
      <trkpt lat="47.52746" lon="7.15876">
        <ele>434.78</ele>
        <time>2018-01-17T11:52:34Z</time>
      </trkpt>
      <trkpt lat="47.52761" lon="7.15895">
        <ele>436.76</ele>
        <time>2018-01-17T11:52:46Z</time>
      </trkpt>
      <trkpt lat="47.52773" lon="7.15915">
        <ele>436.79</ele>
        <time>2018-01-17T11:52:56Z</time>
      </trkpt>
      <trkpt lat="47.52786" lon="7.15937">
        <ele>437.78</ele>
        <time>2018-01-17T11:53:09Z</time>
      </trkpt>
      <trkpt lat="47.52801" lon="7.15955">
        <ele>438.51</ele>
        <time>2018-01-17T11:53:21Z</time>
      </trkpt>
      <trkpt lat="47.52814" lon="7.15976">
        <ele>438.79</ele>
        <time>2018-01-17T11:53:33Z</time>
      </trkpt>
      <trkpt lat="47.5283" lon="7.15997">
        <ele>439.7</ele>
        <time>2018-01-17T11:53:45Z</time>
      </trkpt>
      <trkpt lat="47.52844" lon="7.16021">
        <ele>442.69</ele>
        <time>2018-01-17T11:53:57Z</time>
      </trkpt>
      <trkpt lat="47.52859" lon="7.16041">
        <ele>442.17</ele>
        <time>2018-01-17T11:54:09Z</time>
      </trkpt>
      <trkpt lat="47.52873" lon="7.1606">
        <ele>442.76</ele>
        <time>2018-01-17T11:54:19Z</time>
      </trkpt>
      <trkpt lat="47.52889" lon="7.16074">
        <ele>443.47</ele>
        <time>2018-01-17T11:54:29Z</time>
      </trkpt>
      <trkpt lat="47.52903" lon="7.16093">
        <ele>444.49</ele>
        <time>2018-01-17T11:54:39Z</time>
      </trkpt>
      <trkpt lat="47.52921" lon="7.16106">
        <ele>443.82</ele>
        <time>2018-01-17T11:54:51Z</time>
      </trkpt>
      <trkpt lat="47.52937" lon="7.16121">
        <ele>444.76</ele>
        <time>2018-01-17T11:55:02Z</time>
      </trkpt>
      <trkpt lat="47.5295" lon="7.16141">
        <ele>445.76</ele>
        <time>2018-01-17T11:55:14Z</time>
      </trkpt>
      <trkpt lat="47.52967" lon="7.16158">
        <ele>447.7</ele>
        <time>2018-01-17T11:55:26Z</time>
      </trkpt>
      <trkpt lat="47.52985" lon="7.16168">
        <ele>444.12</ele>
        <time>2018-01-17T11:55:38Z</time>
      </trkpt>
      <trkpt lat="47.53" lon="7.16184">
        <ele>443.79</ele>
        <time>2018-01-17T11:55:50Z</time>
      </trkpt>
      <trkpt lat="47.53014" lon="7.16203">
        <ele>442.79</ele>
        <time>2018-01-17T11:56:02Z</time>
      </trkpt>
      <trkpt lat="47.5303" lon="7.16221">
        <ele>443.79</ele>
        <time>2018-01-17T11:56:12Z</time>
      </trkpt>
      <trkpt lat="47.53047" lon="7.16239">
        <ele>443.81</ele>
        <time>2018-01-17T11:56:24Z</time>
      </trkpt>
      <trkpt lat="47.53061" lon="7.16259">
        <ele>441.91</ele>
        <time>2018-01-17T11:56:36Z</time>
      </trkpt>
      <trkpt lat="47.53074" lon="7.1628">
        <ele>441.79</ele>
        <time>2018-01-17T11:56:46Z</time>
      </trkpt>
      <trkpt lat="47.5309" lon="7.16301">
        <ele>441.7</ele>
        <time>2018-01-17T11:56:58Z</time>
      </trkpt>
      <trkpt lat="47.53105" lon="7.16317">
        <ele>441.77</ele>
        <time>2018-01-17T11:57:08Z</time>
      </trkpt>
      <trkpt lat="47.53116" lon="7.1634">
        <ele>441.09</ele>
        <time>2018-01-17T11:57:20Z</time>
      </trkpt>
      <trkpt lat="47.53129" lon="7.16358">
        <ele>439.09</ele>
        <time>2018-01-17T11:57:32Z</time>
      </trkpt>
      <trkpt lat="47.53143" lon="7.16382">
        <ele>438.79</ele>
        <time>2018-01-17T11:57:44Z</time>
      </trkpt>
      <trkpt lat="47.53158" lon="7.164">
        <ele>439.49</ele>
        <time>2018-01-17T11:57:56Z</time>
      </trkpt>
      <trkpt lat="47.53171" lon="7.16423">
        <ele>439.79</ele>
        <time>2018-01-17T11:58:08Z</time>
      </trkpt>
      <trkpt lat="47.53187" lon="7.16443">
        <ele>440.58</ele>
        <time>2018-01-17T11:58:20Z</time>
      </trkpt>
      <trkpt lat="47.53202" lon="7.16465">
        <ele>439.61</ele>
        <time>2018-01-17T11:58:32Z</time>
      </trkpt>
      <trkpt lat="47.53218" lon="7.16485">
        <ele>440.78</ele>
        <time>2018-01-17T11:58:44Z</time>
      </trkpt>
      <trkpt lat="47.53235" lon="7.16503">
        <ele>439.09</ele>
        <time>2018-01-17T11:58:55Z</time>
      </trkpt>
      <trkpt lat="47.5325" lon="7.16519">
        <ele>438.01</ele>
        <time>2018-01-17T11:59:07Z</time>
      </trkpt>
      <trkpt lat="47.53263" lon="7.16542">
        <ele>435.91</ele>
        <time>2018-01-17T11:59:19Z</time>
      </trkpt>
      <trkpt lat="47.53279" lon="7.16564">
        <ele>432.82</ele>
        <time>2018-01-17T11:59:33Z</time>
      </trkpt>
      <trkpt lat="47.53292" lon="7.16582">
        <ele>433.72</ele>
        <time>2018-01-17T11:59:43Z</time>
      </trkpt>
      <trkpt lat="47.53305" lon="7.16603">
        <ele>434.7</ele>
        <time>2018-01-17T11:59:53Z</time>
      </trkpt>
      <trkpt lat="47.5332" lon="7.16622">
        <ele>433.82</ele>
        <time>2018-01-17T12:00:05Z</time>
      </trkpt>
      <trkpt lat="47.53337" lon="7.16635">
        <ele>432.8</ele>
        <time>2018-01-17T12:00:27Z</time>
      </trkpt>
      <trkpt lat="47.53351" lon="7.16658">
        <ele>429.81</ele>
        <time>2018-01-17T12:00:39Z</time>
      </trkpt>
      <trkpt lat="47.53367" lon="7.16677">
        <ele>428.1</ele>
        <time>2018-01-17T12:00:51Z</time>
      </trkpt>
      <trkpt lat="47.53381" lon="7.16697">
        <ele>425.82</ele>
        <time>2018-01-17T12:01:03Z</time>
      </trkpt>
      <trkpt lat="47.53397" lon="7.16718">
        <ele>423.88</ele>
        <time>2018-01-17T12:01:15Z</time>
      </trkpt>
      <trkpt lat="47.53413" lon="7.16737">
        <ele>421.82</ele>
        <time>2018-01-17T12:01:27Z</time>
      </trkpt>
      <trkpt lat="47.53428" lon="7.16758">
        <ele>421.09</ele>
        <time>2018-01-17T12:01:39Z</time>
      </trkpt>
      <trkpt lat="47.53442" lon="7.16741">
        <ele>420.79</ele>
        <time>2018-01-17T12:01:57Z</time>
      </trkpt>
      <trkpt lat="47.53434" lon="7.16716">
        <ele>420.72</ele>
        <time>2018-01-17T12:02:08Z</time>
      </trkpt>
      <trkpt lat="47.53431" lon="7.16688">
        <ele>420.79</ele>
        <time>2018-01-17T12:02:20Z</time>
      </trkpt>
      <trkpt lat="47.53445" lon="7.16669">
        <ele>422.76</ele>
        <time>2018-01-17T12:02:32Z</time>
      </trkpt>
      <trkpt lat="47.53462" lon="7.16655">
        <ele>422.88</ele>
        <time>2018-01-17T12:02:44Z</time>
      </trkpt>
      <trkpt lat="47.53483" lon="7.16651">
        <ele>422.09</ele>
        <time>2018-01-17T12:02:56Z</time>
      </trkpt>
      <trkpt lat="47.53501" lon="7.16649">
        <ele>420.71</ele>
        <time>2018-01-17T12:03:06Z</time>
      </trkpt>
      <trkpt lat="47.5352" lon="7.16648">
        <ele>418.89</ele>
        <time>2018-01-17T12:03:16Z</time>
      </trkpt>
      <trkpt lat="47.53541" lon="7.16645">
        <ele>416.88</ele>
        <time>2018-01-17T12:03:28Z</time>
      </trkpt>
      <trkpt lat="47.53562" lon="7.16646">
        <ele>416.03</ele>
        <time>2018-01-17T12:03:40Z</time>
      </trkpt>
      <trkpt lat="47.5358" lon="7.16638">
        <ele>415.07</ele>
        <time>2018-01-17T12:03:52Z</time>
      </trkpt>
      <trkpt lat="47.53598" lon="7.16621">
        <ele>414.79</ele>
        <time>2018-01-17T12:04:04Z</time>
      </trkpt>
      <trkpt lat="47.53615" lon="7.16605">
        <ele>414.81</ele>
        <time>2018-01-17T12:04:16Z</time>
      </trkpt>
      <trkpt lat="47.53629" lon="7.16588">
        <ele>415.79</ele>
        <time>2018-01-17T12:04:26Z</time>
      </trkpt>
      <trkpt lat="47.53644" lon="7.16568">
        <ele>416.97</ele>
        <time>2018-01-17T12:04:38Z</time>
      </trkpt>
      <trkpt lat="47.53657" lon="7.1655">
        <ele>417.49</ele>
        <time>2018-01-17T12:04:48Z</time>
      </trkpt>
      <trkpt lat="47.53674" lon="7.16531">
        <ele>417.79</ele>
        <time>2018-01-17T12:05:00Z</time>
      </trkpt>
      <trkpt lat="47.53688" lon="7.16513">
        <ele>418.49</ele>
        <time>2018-01-17T12:05:12Z</time>
      </trkpt>
      <trkpt lat="47.53701" lon="7.1649">
        <ele>417.77</ele>
        <time>2018-01-17T12:05:26Z</time>
      </trkpt>
      <trkpt lat="47.53712" lon="7.16466">
        <ele>416.09</ele>
        <time>2018-01-17T12:05:37Z</time>
      </trkpt>
      <trkpt lat="47.53723" lon="7.16444">
        <ele>415.79</ele>
        <time>2018-01-17T12:05:49Z</time>
      </trkpt>
      <trkpt lat="47.53744" lon="7.16448">
        <ele>414.8</ele>
        <time>2018-01-17T12:06:03Z</time>
      </trkpt>
      <trkpt lat="47.53757" lon="7.16469">
        <ele>414.06</ele>
        <time>2018-01-17T12:06:15Z</time>
      </trkpt>
      <trkpt lat="47.53772" lon="7.16489">
        <ele>412.88</ele>
        <time>2018-01-17T12:06:27Z</time>
      </trkpt>
      <trkpt lat="47.53786" lon="7.16509">
        <ele>411.1</ele>
        <time>2018-01-17T12:06:39Z</time>
      </trkpt>
      <trkpt lat="47.53799" lon="7.16527">
        <ele>410.81</ele>
        <time>2018-01-17T12:06:49Z</time>
      </trkpt>
      <trkpt lat="47.53813" lon="7.16545">
        <ele>409.88</ele>
        <time>2018-01-17T12:07:01Z</time>
      </trkpt>
      <trkpt lat="47.53821" lon="7.16572">
        <ele>407.89</ele>
        <time>2018-01-17T12:07:13Z</time>
      </trkpt>
      <trkpt lat="47.53839" lon="7.16589">
        <ele>405.82</ele>
        <time>2018-01-17T12:07:25Z</time>
      </trkpt>
      <trkpt lat="47.53855" lon="7.16608">
        <ele>405.09</ele>
        <time>2018-01-17T12:07:37Z</time>
      </trkpt>
      <trkpt lat="47.5387" lon="7.16629">
        <ele>404.79</ele>
        <time>2018-01-17T12:07:49Z</time>
      </trkpt>
      <trkpt lat="47.53884" lon="7.16651">
        <ele>402.8</ele>
        <time>2018-01-17T12:08:03Z</time>
      </trkpt>
      <trkpt lat="47.53897" lon="7.16673">
        <ele>401.82</ele>
        <time>2018-01-17T12:08:15Z</time>
      </trkpt>
      <trkpt lat="47.5391" lon="7.16696">
        <ele>400.82</ele>
        <time>2018-01-17T12:08:28Z</time>
      </trkpt>
      <trkpt lat="47.5392" lon="7.16722">
        <ele>398.91</ele>
        <time>2018-01-17T12:08:40Z</time>
      </trkpt>
      <trkpt lat="47.53933" lon="7.16741">
        <ele>397.1</ele>
        <time>2018-01-17T12:08:52Z</time>
      </trkpt>
      <trkpt lat="47.53947" lon="7.16762">
        <ele>394.89</ele>
        <time>2018-01-17T12:09:04Z</time>
      </trkpt>
      <trkpt lat="47.53961" lon="7.1678">
        <ele>393.12</ele>
        <time>2018-01-17T12:09:16Z</time>
      </trkpt>
      <trkpt lat="47.53973" lon="7.16801">
        <ele>390.88</ele>
        <time>2018-01-17T12:09:28Z</time>
      </trkpt>
      <trkpt lat="47.53968" lon="7.16827">
        <ele>388.8</ele>
        <time>2018-01-17T12:09:40Z</time>
      </trkpt>
      <trkpt lat="47.53961" lon="7.16855">
        <ele>386.1</ele>
        <time>2018-01-17T12:09:52Z</time>
      </trkpt>
      <trkpt lat="47.53952" lon="7.16878">
        <ele>385.85</ele>
        <time>2018-01-17T12:10:04Z</time>
      </trkpt>
      <trkpt lat="47.53941" lon="7.169">
        <ele>384.86</ele>
        <time>2018-01-17T12:10:16Z</time>
      </trkpt>
      <trkpt lat="47.53928" lon="7.16922">
        <ele>383.1</ele>
        <time>2018-01-17T12:10:28Z</time>
      </trkpt>
      <trkpt lat="47.5392" lon="7.16947">
        <ele>383.78</ele>
        <time>2018-01-17T12:10:42Z</time>
      </trkpt>
      <trkpt lat="47.53909" lon="7.16972">
        <ele>383.09</ele>
        <time>2018-01-17T12:10:54Z</time>
      </trkpt>
      <trkpt lat="47.53913" lon="7.16998">
        <ele>381.8</ele>
        <time>2018-01-17T12:11:10Z</time>
      </trkpt>
      <trkpt lat="47.53917" lon="7.17027">
        <ele>380.7</ele>
        <time>2018-01-17T12:11:39Z</time>
      </trkpt>
      <trkpt lat="47.53925" lon="7.17055">
        <ele>381.7</ele>
        <time>2018-01-17T12:11:53Z</time>
      </trkpt>
      <trkpt lat="47.53932" lon="7.17082">
        <ele>380.09</ele>
        <time>2018-01-17T12:12:05Z</time>
      </trkpt>
      <trkpt lat="47.5394" lon="7.17109">
        <ele>379.79</ele>
        <time>2018-01-17T12:12:17Z</time>
      </trkpt>
      <trkpt lat="47.53951" lon="7.17135">
        <ele>377.88</ele>
        <time>2018-01-17T12:12:29Z</time>
      </trkpt>
      <trkpt lat="47.53955" lon="7.17162">
        <ele>376.79</ele>
        <time>2018-01-17T12:12:41Z</time>
      </trkpt>
      <trkpt lat="47.53954" lon="7.17192">
        <ele>374.82</ele>
        <time>2018-01-17T12:12:55Z</time>
      </trkpt>
      <trkpt lat="47.53962" lon="7.17219">
        <ele>374.08</ele>
        <time>2018-01-17T12:13:09Z</time>
      </trkpt>
      <trkpt lat="47.5398" lon="7.17227">
        <ele>372.8</ele>
        <time>2018-01-17T12:13:19Z</time>
      </trkpt>
      <trkpt lat="47.53996" lon="7.17243">
        <ele>370.88</ele>
        <time>2018-01-17T12:13:31Z</time>
      </trkpt>
      <trkpt lat="47.54014" lon="7.17233">
        <ele>371.77</ele>
        <time>2018-01-17T12:13:45Z</time>
      </trkpt>
      <trkpt lat="47.5403" lon="7.17213">
        <ele>375.39</ele>
        <time>2018-01-17T12:13:59Z</time>
      </trkpt>
      <trkpt lat="47.54044" lon="7.17191">
        <ele>377.79</ele>
        <time>2018-01-17T12:14:13Z</time>
      </trkpt>
      <trkpt lat="47.54053" lon="7.17167">
        <ele>375.89</ele>
        <time>2018-01-17T12:14:23Z</time>
      </trkpt>
      <trkpt lat="47.54062" lon="7.17141">
        <ele>374.12</ele>
        <time>2018-01-17T12:14:34Z</time>
      </trkpt>
      <trkpt lat="47.54072" lon="7.17117">
        <ele>370.91</ele>
        <time>2018-01-17T12:14:46Z</time>
      </trkpt>
      <trkpt lat="47.5409" lon="7.17102">
        <ele>368.89</ele>
        <time>2018-01-17T12:15:00Z</time>
      </trkpt>
      <trkpt lat="47.54103" lon="7.17084">
        <ele>370.7</ele>
        <time>2018-01-17T12:15:14Z</time>
      </trkpt>
      <trkpt lat="47.54118" lon="7.17066">
        <ele>370.09</ele>
        <time>2018-01-17T12:15:26Z</time>
      </trkpt>
      <trkpt lat="47.54138" lon="7.17063">
        <ele>369.79</ele>
        <time>2018-01-17T12:15:40Z</time>
      </trkpt>
      <trkpt lat="47.54166" lon="7.171">
        <ele>381.95</ele>
        <time>2018-01-17T12:16:35Z</time>
      </trkpt>
      <trkpt lat="47.54201" lon="7.17163">
        <ele>307.64</ele>
        <time>2018-01-17T12:16:46Z</time>
      </trkpt>
    </trkseg>
  </trk>
</gpx>